sensor_id;sensor_type;location;lat;lon;timestamp;pressure;altitude;pressure_sealevel;temperature;humidity
54856;BME280;40748;53.168;5.800;2023-01-15T00:02:00;99478.14;;;6.12;100.00
54856;BME280;40748;53.168;5.800;2023-01-15T00:04:30;99478.49;;;6.20;100.00
54856;BME280;40748;53.168;5.800;2023-01-15T00:07:00;99470.59000000001;;;6.18;100.00
54856;BME280;40748;53.168;5.800;2023-01-15T00:09:30;99462.84000000001;;;6.25;100.00
54856;BME280;40748;53.168;5.800;2023-01-15T00:12:00;99461.82;;;6.24;100.00
54856;BME280;40748;53.168;5.800;2023-01-15T00:14:30;99460.65999999999;;;6.26;100.00
54856;BME280;40748;53.168;5.800;2023-01-15T00:17:00;99464.56;;;6.18;100.00
54856;BME280;40748;53.168;5.800;2023-01-15T00:19:30;99477.94;;;6.24;100.00
54856;BME280;40748;53.168;5.800;2023-01-15T00:22:00;99474.25;;;6.31;100.00
54856;BME280;40748;53.168;5.800;2023-01-15T00:24:30;99481.96;;;6.27;100.00
54856;BME280;40748;53.168;5.800;2023-01-15T00:27:00;99476.11;;;6.18;100.00
54856;BME280;40748;53.168;5.800;2023-01-15T00:29:30;99482.0;;;6.21;100.00
54856;BME280;40748;53.168;5.800;2023-01-15T00:32:01;99490.74;;;6.24;100.00
54856;BME280;40748;53.168;5.800;2023-01-15T00:34:30;99482.67;;;6.22;100.00
54856;BME280;40748;53.168;5.800;2023-01-15T00:39:30;99480.74;;;6.31;100.00
54856;BME280;40748;53.168;5.800;2023-01-15T00:42:00;99490.22;;;6.30;100.00
54856;BME280;40748;53.168;5.800;2023-01-15T00:44:30;99482.08;;;6.22;100.00
54856;BME280;40748;53.168;5.800;2023-01-15T00:47:00;99479.38;;;6.25;100.00
54856;BME280;40748;53.168;5.800;2023-01-15T00:49:30;99472.49;;;6.21;100.00
54856;BME280;40748;53.168;5.800;2023-01-15T00:52:00;99471.53;;;6.20;100.00
54856;BME280;40748;53.168;5.800;2023-01-15T00:54:30;99476.73;;;6.23;100.00
54856;BME280;40748;53.168;5.800;2023-01-15T00:57:00;99478.44;;;6.28;100.00
54856;BME280;40748;53.168;5.800;2023-01-15T00:59:30;99478.38;;;6.27;100.00
54856;BME280;40748;53.168;5.800;2023-01-15T01:02:00;99479.86;;;6.23;100.00
54856;BME280;40748;53.168;5.800;2023-01-15T01:07:00;99472.82;;;6.22;100.00
54856;BME280;40748;53.168;5.800;2023-01-15T01:09:30;99480.89;;;6.30;100.00
54856;BME280;40748;53.168;5.800;2023-01-15T01:12:00;99477.09;;;6.25;100.00
54856;BME280;40748;53.168;5.800;2023-01-15T01:14:30;99476.67;;;6.23;100.00
54856;BME280;40748;53.168;5.800;2023-01-15T01:17:00;99479.57;;;6.18;100.00
54856;BME280;40748;53.168;5.800;2023-01-15T01:19:30;99476.73;;;6.22;100.00
54856;BME280;40748;53.168;5.800;2023-01-15T01:27:00;99473.33;;;6.26;100.00
54856;BME280;40748;53.168;5.800;2023-01-15T01:29:30;99468.36;;;6.27;100.00
54856;BME280;40748;53.168;5.800;2023-01-15T01:32:00;99466.64;;;6.37;100.00
54856;BME280;40748;53.168;5.800;2023-01-15T01:34:30;99469.34;;;6.42;100.00
54856;BME280;40748;53.168;5.800;2023-01-15T01:37:00;99478.03;;;6.40;100.00
54856;BME280;40748;53.168;5.800;2023-01-15T01:39:30;99478.03;;;6.35;100.00
54856;BME280;40748;53.168;5.800;2023-01-15T01:42:00;99488.06;;;6.32;100.00
54856;BME280;40748;53.168;5.800;2023-01-15T01:47:00;99483.28;;;6.27;100.00
54856;BME280;40748;53.168;5.800;2023-01-15T01:49:30;99483.86;;;6.34;100.00
54856;BME280;40748;53.168;5.800;2023-01-15T01:52:00;99494.97;;;6.38;100.00
54856;BME280;40748;53.168;5.800;2023-01-15T01:54:30;99498.64;;;6.32;100.00
54856;BME280;40748;53.168;5.800;2023-01-15T01:57:00;99491.18999999999;;;6.33;100.00
54856;BME280;40748;53.168;5.800;2023-01-15T01:59:30;99498.5;;;6.29;100.00
54856;BME280;40748;53.168;5.800;2023-01-15T02:02:00;99498.5;;;6.27;100.00
54856;BME280;40748;53.168;5.800;2023-01-15T02:04:30;99497.70999999999;;;6.24;100.00
54856;BME280;40748;53.168;5.800;2023-01-15T02:07:00;99496.98;;;6.23;100.00
54856;BME280;40748;53.168;5.800;2023-01-15T02:09:30;99489.31;;;6.20;100.00
54856;BME280;40748;53.168;5.800;2023-01-15T02:12:01;99484.11;;;6.17;100.00
54856;BME280;40748;53.168;5.800;2023-01-15T02:14:32;99494.94;;;6.20;100.00
54856;BME280;40748;53.168;5.800;2023-01-15T02:17:02;99489.42;;;6.25;100.00
54856;BME280;40748;53.168;5.800;2023-01-15T02:19:32;99495.15;;;6.24;100.00
54856;BME280;40748;53.168;5.800;2023-01-15T02:22:01;99496.48;;;6.19;100.00
54856;BME280;40748;53.168;5.800;2023-01-15T02:24:30;99495.87;;;6.22;100.00
54856;BME280;40748;53.168;5.800;2023-01-15T02:27:04;99493.72;;;6.28;100.00
54856;BME280;40748;53.168;5.800;2023-01-15T02:29:32;99488.9;;;6.23;100.00
54856;BME280;40748;53.168;5.800;2023-01-15T02:32:01;99488.45;;;6.15;100.00
54856;BME280;40748;53.168;5.800;2023-01-15T02:34:31;99478.67;;;6.20;100.00
54856;BME280;40748;53.168;5.800;2023-01-15T02:37:01;99476.11;;;6.16;100.00
54856;BME280;40748;53.168;5.800;2023-01-15T02:39:30;99473.15999999999;;;6.33;100.00
54856;BME280;40748;53.168;5.800;2023-01-15T02:42:01;99482.19;;;6.25;100.00
54856;BME280;40748;53.168;5.800;2023-01-15T02:44:31;99482.19;;;6.36;100.00
54856;BME280;40748;53.168;5.800;2023-01-15T02:47:00;99470.15;;;6.28;100.00
54856;BME280;40748;53.168;5.800;2023-01-15T02:49:30;99471.66;;;6.27;100.00
54856;BME280;40748;53.168;5.800;2023-01-15T02:52:01;99469.45;;;6.38;100.00
54856;BME280;40748;53.168;5.800;2023-01-15T02:54:31;99462.75;;;6.29;100.00
54856;BME280;40748;53.168;5.800;2023-01-15T02:57:00;99453.64;;;6.28;100.00
54856;BME280;40748;53.168;5.800;2023-01-15T02:59:33;99459.59;;;6.23;100.00
54856;BME280;40748;53.168;5.800;2023-01-15T03:02:01;99463.23;;;6.13;100.00
54856;BME280;40748;53.168;5.800;2023-01-15T03:04:31;99460.86;;;6.17;100.00
54856;BME280;40748;53.168;5.800;2023-01-15T03:07:04;99453.38;;;6.16;100.00
54856;BME280;40748;53.168;5.800;2023-01-15T03:09:30;99453.74;;;6.13;100.00
54856;BME280;40748;53.168;5.800;2023-01-15T03:12:02;99458.15;;;6.04;100.00
54856;BME280;40748;53.168;5.800;2023-01-15T03:17:01;99444.86;;;6.05;100.00
54856;BME280;40748;53.168;5.800;2023-01-15T03:19:32;99439.97;;;6.14;100.00
54856;BME280;40748;53.168;5.800;2023-01-15T03:22:02;99441.48;;;6.07;100.00
54856;BME280;40748;53.168;5.800;2023-01-15T03:24:31;99443.61;;;6.04;100.00
54856;BME280;40748;53.168;5.800;2023-01-15T03:29:32;99458.51;;;6.03;100.00
54856;BME280;40748;53.168;5.800;2023-01-15T03:32:00;99442.94;;;5.97;100.00
54856;BME280;40748;53.168;5.800;2023-01-15T03:34:32;99445.28;;;5.93;100.00
54856;BME280;40748;53.168;5.800;2023-01-15T03:39:30;99439.89;;;5.96;100.00
54856;BME280;40748;53.168;5.800;2023-01-15T03:42:04;99443.75;;;5.95;100.00
54856;BME280;40748;53.168;5.800;2023-01-15T03:44:31;99442.26999999999;;;5.94;100.00
54856;BME280;40748;53.168;5.800;2023-01-15T03:47:03;99446.84;;;5.81;100.00
54856;BME280;40748;53.168;5.800;2023-01-15T03:49:33;99435.92;;;5.89;100.00
54856;BME280;40748;53.168;5.800;2023-01-15T03:52:00;99428.09999999999;;;5.77;100.00
54856;BME280;40748;53.168;5.800;2023-01-15T03:54:32;99436.22;;;5.80;99.39
54856;BME280;40748;53.168;5.800;2023-01-15T03:57:01;99439.72;;;5.81;100.00
54856;BME280;40748;53.168;5.800;2023-01-15T03:59:31;99428.59;;;5.84;100.00
54856;BME280;40748;53.168;5.800;2023-01-15T04:02:00;99436.53;;;5.81;100.00
54856;BME280;40748;53.168;5.800;2023-01-15T04:04:30;99425.09;;;5.82;100.00
54856;BME280;40748;53.168;5.800;2023-01-15T04:07:00;99420.03;;;5.74;100.00
54856;BME280;40748;53.168;5.800;2023-01-15T04:09:30;99417.18;;;5.76;99.24
54856;BME280;40748;53.168;5.800;2023-01-15T04:12:00;99428.67;;;5.72;100.00
54856;BME280;40748;53.168;5.800;2023-01-15T04:17:00;99427.42;;;5.76;100.00
54856;BME280;40748;53.168;5.800;2023-01-15T04:19:30;99426.76;;;5.72;100.00
54856;BME280;40748;53.168;5.800;2023-01-15T04:22:00;99431.19;;;5.66;100.00
54856;BME280;40748;53.168;5.800;2023-01-15T04:24:30;99432.03;;;5.65;100.00
54856;BME280;40748;53.168;5.800;2023-01-15T04:29:30;99413.19;;;5.67;100.00
54856;BME280;40748;53.168;5.800;2023-01-15T04:32:00;99415.83;;;5.60;100.00
54856;BME280;40748;53.168;5.800;2023-01-15T04:34:30;99409.98;;;5.59;100.00
54856;BME280;40748;53.168;5.800;2023-01-15T04:37:00;99409.34999999999;;;5.58;100.00
54856;BME280;40748;53.168;5.800;2023-01-15T04:39:30;99409.09;;;5.49;100.00
54856;BME280;40748;53.168;5.800;2023-01-15T04:42:00;99419.55;;;5.43;100.00
54856;BME280;40748;53.168;5.800;2023-01-15T04:44:31;99414.29000000001;;;5.47;100.00
54856;BME280;40748;53.168;5.800;2023-01-15T04:47:00;99405.66;;;5.48;100.00
54856;BME280;40748;53.168;5.800;2023-01-15T04:49:30;99400.08;;;5.38;100.00
54856;BME280;40748;53.168;5.800;2023-01-15T04:52:00;99402.75;;;5.40;100.00
54856;BME280;40748;53.168;5.800;2023-01-15T04:54:30;99395.04;;;5.36;100.00
54856;BME280;40748;53.168;5.800;2023-01-15T04:57:00;99399.62000000001;;;5.33;100.00
54856;BME280;40748;53.168;5.800;2023-01-15T04:59:30;99400.73;;;5.35;100.00
54856;BME280;40748;53.168;5.800;2023-01-15T05:04:30;99393.69;;;5.28;100.00
54856;BME280;40748;53.168;5.800;2023-01-15T05:07:00;99394.26;;;5.34;99.55
54856;BME280;40748;53.168;5.800;2023-01-15T05:09:30;99388.08;;;5.35;100.00
54856;BME280;40748;53.168;5.800;2023-01-15T05:12:00;99391.76;;;5.31;100.00
54856;BME280;40748;53.168;5.800;2023-01-15T05:14:30;99387.98000000001;;;5.20;100.00
54856;BME280;40748;53.168;5.800;2023-01-15T05:19:30;99390.3;;;5.19;100.00
54856;BME280;40748;53.168;5.800;2023-01-15T05:22:00;99382.17;;;5.18;100.00
54856;BME280;40748;53.168;5.800;2023-01-15T05:24:30;99387.34;;;5.15;100.00
54856;BME280;40748;53.168;5.800;2023-01-15T05:27:00;99379.13;;;5.14;99.80
54856;BME280;40748;53.168;5.800;2023-01-15T05:29:30;99388.62000000001;;;5.08;99.13
54856;BME280;40748;53.168;5.800;2023-01-15T05:32:00;99388.11;;;5.01;98.91
54856;BME280;40748;53.168;5.800;2023-01-15T05:37:00;99385.61;;;5.00;99.92
54856;BME280;40748;53.168;5.800;2023-01-15T05:39:30;99371.04000000001;;;5.04;99.86
54856;BME280;40748;53.168;5.800;2023-01-15T05:42:00;99377.89;;;5.01;99.19
54856;BME280;40748;53.168;5.800;2023-01-15T05:44:30;99365.98;;;4.91;99.60
54856;BME280;40748;53.168;5.800;2023-01-15T05:47:00;99362.94;;;4.99;98.06
54856;BME280;40748;53.168;5.800;2023-01-15T05:49:30;99361.15999999999;;;5.00;99.82
54856;BME280;40748;53.168;5.800;2023-01-15T05:52:00;99370.34;;;5.03;99.73
54856;BME280;40748;53.168;5.800;2023-01-15T05:54:31;99370.34;;;4.98;99.73
54856;BME280;40748;53.168;5.800;2023-01-15T05:57:00;99373.61;;;4.94;98.82
54856;BME280;40748;53.168;5.800;2023-01-15T05:59:31;99378.68;;;4.86;99.63
54856;BME280;40748;53.168;5.800;2023-01-15T06:02:00;99373.86;;;4.87;98.95
54856;BME280;40748;53.168;5.800;2023-01-15T06:04:30;99374.97;;;4.99;99.48
54856;BME280;40748;53.168;5.800;2023-01-15T06:07:00;99368.28;;;4.90;100.00
54856;BME280;40748;53.168;5.800;2023-01-15T06:09:30;99362.8;;;4.81;99.85
54856;BME280;40748;53.168;5.800;2023-01-15T06:12:00;99363.03;;;4.79;99.93
54856;BME280;40748;53.168;5.800;2023-01-15T06:14:30;99360.69;;;4.82;99.14
54856;BME280;40748;53.168;5.800;2023-01-15T06:17:00;99361.79;;;4.85;99.19
54856;BME280;40748;53.168;5.800;2023-01-15T06:19:30;99363.67;;;4.90;98.68
54856;BME280;40748;53.168;5.800;2023-01-15T06:22:00;99370.04;;;4.89;99.21
54856;BME280;40748;53.168;5.800;2023-01-15T06:24:30;99365.84;;;4.95;98.81
54856;BME280;40748;53.168;5.800;2023-01-15T06:27:00;99369.05;;;4.83;99.37
54856;BME280;40748;53.168;5.800;2023-01-15T06:29:30;99369.02;;;4.84;98.49
54856;BME280;40748;53.168;5.800;2023-01-15T06:32:00;99359.53;;;4.85;99.28
54856;BME280;40748;53.168;5.800;2023-01-15T06:34:30;99347.24;;;4.79;98.89
54856;BME280;40748;53.168;5.800;2023-01-15T06:37:00;99347.03;;;4.86;98.78
54856;BME280;40748;53.168;5.800;2023-01-15T06:39:30;99345.92;;;4.73;99.56
54856;BME280;40748;53.168;5.800;2023-01-15T06:42:00;99349.01999999999;;;4.78;97.83
54856;BME280;40748;53.168;5.800;2023-01-15T06:44:30;99350.94;;;4.85;98.80
54856;BME280;40748;53.168;5.800;2023-01-15T06:47:01;99348.33;;;4.76;99.48
54856;BME280;40748;53.168;5.800;2023-01-15T06:49:30;99344.39;;;4.70;98.27
54856;BME280;40748;53.168;5.800;2023-01-15T06:52:00;99345.61;;;4.78;98.16
54856;BME280;40748;53.168;5.800;2023-01-15T06:54:30;99355.84;;;4.77;98.87
54856;BME280;40748;53.168;5.800;2023-01-15T06:57:00;99352.19;;;4.78;99.03
54856;BME280;40748;53.168;5.800;2023-01-15T06:59:30;99354.54999999999;;;4.71;98.79
54856;BME280;40748;53.168;5.800;2023-01-15T07:02:00;99357.64;;;4.74;98.41
54856;BME280;40748;53.168;5.800;2023-01-15T07:04:30;99346.66;;;4.73;98.73
54856;BME280;40748;53.168;5.800;2023-01-15T07:07:00;99346.5;;;4.74;99.10
54856;BME280;40748;53.168;5.800;2023-01-15T07:09:30;99346.5;;;4.70;98.71
54856;BME280;40748;53.168;5.800;2023-01-15T07:12:00;99344.64;;;4.80;98.25
54856;BME280;40748;53.168;5.800;2023-01-15T07:14:30;99335.88;;;4.82;99.15
54856;BME280;40748;53.168;5.800;2023-01-15T07:17:00;99343.69;;;4.79;99.00
54856;BME280;40748;53.168;5.800;2023-01-15T07:19:30;99348.1;;;4.88;97.69
54856;BME280;40748;53.168;5.800;2023-01-15T07:22:00;99350.31;;;4.95;98.97
54856;BME280;40748;53.168;5.800;2023-01-15T07:24:30;99340.20000000001;;;4.92;99.21
54856;BME280;40748;53.168;5.800;2023-01-15T07:29:30;99335.63;;;4.89;97.55
54856;BME280;40748;53.168;5.800;2023-01-15T07:34:30;99349.81;;;4.88;98.17
54856;BME280;40748;53.168;5.800;2023-01-15T07:37:00;99340.53;;;4.83;97.67
54856;BME280;40748;53.168;5.800;2023-01-15T07:39:30;99336.94;;;4.93;97.52
54856;BME280;40748;53.168;5.800;2023-01-15T07:42:00;99348.6;;;4.88;98.29
54856;BME280;40748;53.168;5.800;2023-01-15T07:44:30;99330.88;;;4.94;96.78
54856;BME280;40748;53.168;5.800;2023-01-15T07:47:00;99344.23000000001;;;4.87;98.58
54856;BME280;40748;53.168;5.800;2023-01-15T07:49:30;99335.44;;;4.97;97.22
54856;BME280;40748;53.168;5.800;2023-01-15T07:52:00;99329.76999999999;;;4.99;97.63
54856;BME280;40748;53.168;5.800;2023-01-15T07:54:30;99342.03;;;4.97;98.09
54856;BME280;40748;53.168;5.800;2023-01-15T07:57:00;99317.96;;;4.98;97.29
54856;BME280;40748;53.168;5.800;2023-01-15T07:59:30;99321.15;;;5.01;97.37
54856;BME280;40748;53.168;5.800;2023-01-15T08:02:00;99321.57999999999;;;4.96;97.83
54856;BME280;40748;53.168;5.800;2023-01-15T08:04:30;99321.06;;;5.01;97.22
54856;BME280;40748;53.168;5.800;2023-01-15T08:09:30;99322.22;;;4.99;97.44
54856;BME280;40748;53.168;5.800;2023-01-15T08:12:00;99306.02;;;4.94;97.49
54856;BME280;40748;53.168;5.800;2023-01-15T08:14:30;99332.09000000001;;;5.05;96.65
54856;BME280;40748;53.168;5.800;2023-01-15T08:17:00;99308.42;;;4.97;97.80
54856;BME280;40748;53.168;5.800;2023-01-15T08:19:30;99325.78;;;4.89;96.43
54856;BME280;40748;53.168;5.800;2023-01-15T08:22:00;99317.38;;;4.96;95.74
54856;BME280;40748;53.168;5.800;2023-01-15T08:24:30;99301.29;;;4.94;97.23
54856;BME280;40748;53.168;5.800;2023-01-15T08:27:00;99316.04999999999;;;4.99;97.08
54856;BME280;40748;53.168;5.800;2023-01-15T08:29:30;99315.3;;;4.93;97.37
54856;BME280;40748;53.168;5.800;2023-01-15T08:32:00;99305.47;;;4.95;97.77
54856;BME280;40748;53.168;5.800;2023-01-15T08:34:30;99310.82;;;4.96;98.40
54856;BME280;40748;53.168;5.800;2023-01-15T08:37:00;99303.93000000001;;;5.04;98.32
54856;BME280;40748;53.168;5.800;2023-01-15T08:39:30;99305.89;;;4.97;98.60
54856;BME280;40748;53.168;5.800;2023-01-15T08:42:00;99302.55;;;4.95;97.60
54856;BME280;40748;53.168;5.800;2023-01-15T08:44:30;99302.39;;;4.98;97.16
54856;BME280;40748;53.168;5.800;2023-01-15T08:47:00;99307.89;;;5.01;97.32
54856;BME280;40748;53.168;5.800;2023-01-15T08:49:30;99308.15;;;5.05;97.33
54856;BME280;40748;53.168;5.800;2023-01-15T08:54:30;99314.45999999999;;;5.08;96.79
54856;BME280;40748;53.168;5.800;2023-01-15T08:57:00;99313.94;;;5.18;96.76
54856;BME280;40748;53.168;5.800;2023-01-15T08:59:30;99330.7;;;5.14;97.46
54856;BME280;40748;53.168;5.800;2023-01-15T09:04:30;99310.94;;;5.16;97.02
54856;BME280;40748;53.168;5.800;2023-01-15T09:07:00;99304.39;;;5.24;95.48
54856;BME280;40748;53.168;5.800;2023-01-15T09:09:30;99307.83;;;5.32;96.24
54856;BME280;40748;53.168;5.800;2023-01-15T09:12:00;99307.06;;;5.37;95.62
54856;BME280;40748;53.168;5.800;2023-01-15T09:14:30;99305.0;;;5.51;95.85
54856;BME280;40748;53.168;5.800;2023-01-15T09:17:00;99316.17;;;5.47;97.67
54856;BME280;40748;53.168;5.800;2023-01-15T09:19:30;99293.67;;;5.56;96.96
54856;BME280;40748;53.168;5.800;2023-01-15T09:22:00;99289.68;;;5.55;98.02
54856;BME280;40748;53.168;5.800;2023-01-15T09:27:00;99289.48000000001;;;5.59;94.93
54856;BME280;40748;53.168;5.800;2023-01-15T09:29:30;99289.48000000001;;;5.72;94.93
54856;BME280;40748;53.168;5.800;2023-01-15T09:32:00;99287.75;;;5.71;97.15
54856;BME280;40748;53.168;5.800;2023-01-15T09:34:30;99297.85;;;5.75;96.49
54856;BME280;40748;53.168;5.800;2023-01-15T09:39:30;99295.01000000001;;;5.79;97.63
54856;BME280;40748;53.168;5.800;2023-01-15T09:42:04;99295.01000000001;;;5.75;97.63
54856;BME280;40748;53.168;5.800;2023-01-15T09:44:32;99297.85;;;5.82;96.60
54856;BME280;40748;53.168;5.800;2023-01-15T09:47:03;99288.59999999999;;;5.76;98.78
54856;BME280;40748;53.168;5.800;2023-01-15T09:49:33;99272.5;;;5.81;96.80
54856;BME280;40748;53.168;5.800;2023-01-15T09:52:04;99277.33;;;5.91;97.79
54856;BME280;40748;53.168;5.800;2023-01-15T09:54:35;99286.47;;;5.87;99.19
54856;BME280;40748;53.168;5.800;2023-01-15T09:57:00;99286.83;;;5.84;98.09
54856;BME280;40748;53.168;5.800;2023-01-15T09:59:31;99295.5;;;5.82;97.18
54856;BME280;40748;53.168;5.800;2023-01-15T10:02:01;99295.83;;;5.87;97.96
54856;BME280;40748;53.168;5.800;2023-01-15T10:04:32;99299.92;;;5.77;97.36
54856;BME280;40748;53.168;5.800;2023-01-15T10:09:32;99300.68;;;5.76;96.58
54856;BME280;40748;53.168;5.800;2023-01-15T10:12:01;99296.12;;;5.64;96.43
54856;BME280;40748;53.168;5.800;2023-01-15T10:14:32;99316.53;;;5.65;95.36
54856;BME280;40748;53.168;5.800;2023-01-15T10:17:00;99307.68000000001;;;5.64;96.97
54856;BME280;40748;53.168;5.800;2023-01-15T10:19:30;99308.34999999999;;;5.65;96.40
54856;BME280;40748;53.168;5.800;2023-01-15T10:22:01;99304.39;;;5.76;96.73
54856;BME280;40748;53.168;5.800;2023-01-15T10:24:32;99294.6;;;5.80;97.17
54856;BME280;40748;53.168;5.800;2023-01-15T10:27:00;99294.6;;;5.77;97.17
54856;BME280;40748;53.168;5.800;2023-01-15T10:29:31;99294.84;;;5.84;97.18
54856;BME280;40748;53.168;5.800;2023-01-15T10:32:01;99277.01;;;5.86;97.55
54856;BME280;40748;53.168;5.800;2023-01-15T10:34:35;99285.74;;;5.95;96.75
54856;BME280;40748;53.168;5.800;2023-01-15T10:37:02;99295.61;;;5.93;96.43
54856;BME280;40748;53.168;5.800;2023-01-15T10:39:32;99288.4;;;5.99;95.90
54856;BME280;40748;53.168;5.800;2023-01-15T10:42:04;99285.86;;;6.00;95.39
54856;BME280;40748;53.168;5.800;2023-01-15T10:44:34;99286.63;;;6.10;94.80
54856;BME280;40748;53.168;5.800;2023-01-15T10:47:00;99285.19;;;6.15;95.61
54856;BME280;40748;53.168;5.800;2023-01-15T10:49:30;99300.75;;;6.27;94.62
54856;BME280;40748;53.168;5.800;2023-01-15T10:52:02;99281.37000000001;;;6.40;95.85
54856;BME280;40748;53.168;5.800;2023-01-15T10:54:31;99302.67;;;6.35;96.39
54856;BME280;40748;53.168;5.800;2023-01-15T10:57:02;99273.39;;;6.36;95.75
54856;BME280;40748;53.168;5.800;2023-01-15T10:59:33;99276.64;;;6.38;95.81
54856;BME280;40748;53.168;5.800;2023-01-15T11:02:00;99277.61;;;6.43;94.07
54856;BME280;40748;53.168;5.800;2023-01-15T11:04:30;99279.17;;;6.48;95.21
54856;BME280;40748;53.168;5.800;2023-01-15T11:07:00;99274.01;;;6.51;95.34
54856;BME280;40748;53.168;5.800;2023-01-15T11:14:31;99271.99;;;6.57;94.66
54856;BME280;40748;53.168;5.800;2023-01-15T11:17:00;99270.06;;;6.60;95.62
54856;BME280;40748;53.168;5.800;2023-01-15T11:19:32;99272.34;;;6.57;94.39
54856;BME280;40748;53.168;5.800;2023-01-15T11:22:00;99280.67;;;6.45;94.89
54856;BME280;40748;53.168;5.800;2023-01-15T11:24:30;99299.0;;;6.53;94.29
54856;BME280;40748;53.168;5.800;2023-01-15T11:27:01;99312.55;;;6.44;95.88
54856;BME280;40748;53.168;5.800;2023-01-15T11:29:31;99297.53;;;6.38;95.88
54856;BME280;40748;53.168;5.800;2023-01-15T11:32:00;99297.53;;;6.29;96.56
54856;BME280;40748;53.168;5.800;2023-01-15T11:37:01;99290.4;;;6.15;96.53
54856;BME280;40748;53.168;5.800;2023-01-15T11:39:30;99320.11;;;6.08;96.91
54856;BME280;40748;53.168;5.800;2023-01-15T11:42:01;99321.42;;;6.05;97.88
54856;BME280;40748;53.168;5.800;2023-01-15T11:44:30;99325.05;;;5.95;99.01
54856;BME280;40748;53.168;5.800;2023-01-15T11:47:00;99349.33;;;5.77;99.34
54856;BME280;40748;53.168;5.800;2023-01-15T11:49:30;99343.42;;;5.81;100.00
54856;BME280;40748;53.168;5.800;2023-01-15T11:52:00;99352.03;;;5.64;100.00
54856;BME280;40748;53.168;5.800;2023-01-15T11:54:31;99357.73000000001;;;5.46;100.00
54856;BME280;40748;53.168;5.800;2023-01-15T11:57:00;99353.26;;;5.45;100.00
54856;BME280;40748;53.168;5.800;2023-01-15T12:02:01;99341.44;;;5.47;100.00
54856;BME280;40748;53.168;5.800;2023-01-15T12:04:33;99341.72;;;5.42;100.00
54856;BME280;40748;53.168;5.800;2023-01-15T12:07:01;99347.08;;;5.38;100.00
54856;BME280;40748;53.168;5.800;2023-01-15T12:09:34;99348.47;;;5.40;100.00
54856;BME280;40748;53.168;5.800;2023-01-15T12:12:03;99327.86;;;5.44;100.00
54856;BME280;40748;53.168;5.800;2023-01-15T12:14:34;99351.79000000001;;;5.49;100.00
54856;BME280;40748;53.168;5.800;2023-01-15T12:17:01;99340.13;;;5.51;100.00
54856;BME280;40748;53.168;5.800;2023-01-15T12:19:32;99352.82999999999;;;5.44;100.00
54856;BME280;40748;53.168;5.800;2023-01-15T12:22:04;99340.26;;;5.53;100.00
54856;BME280;40748;53.168;5.800;2023-01-15T12:24:36;99346.2;;;5.51;100.00
54856;BME280;40748;53.168;5.800;2023-01-15T12:27:04;99351.15;;;5.52;100.00
54856;BME280;40748;53.168;5.800;2023-01-15T12:29:31;99357.79;;;5.60;100.00
54856;BME280;40748;53.168;5.800;2023-01-15T12:32:02;99337.42;;;5.57;100.00
54856;BME280;40748;53.168;5.800;2023-01-15T12:39:31;99337.64;;;5.60;100.00
54856;BME280;40748;53.168;5.800;2023-01-15T12:42:01;99330.61;;;5.58;100.00
54856;BME280;40748;53.168;5.800;2023-01-15T12:44:32;99320.65;;;5.60;100.00
54856;BME280;40748;53.168;5.800;2023-01-15T12:47:00;99320.65;;;5.63;100.00
54856;BME280;40748;53.168;5.800;2023-01-15T12:52:01;99335.69;;;5.66;100.00
54856;BME280;40748;53.168;5.800;2023-01-15T12:54:32;99331.17;;;5.71;100.00
54856;BME280;40748;53.168;5.800;2023-01-15T13:02:03;99336.92;;;5.73;100.00
54856;BME280;40748;53.168;5.800;2023-01-15T13:07:01;99341.86;;;5.69;100.00
54856;BME280;40748;53.168;5.800;2023-01-15T13:09:33;99343.58;;;5.76;100.00
54856;BME280;40748;53.168;5.800;2023-01-15T13:12:00;99389.23999999999;;;5.45;100.00
54856;BME280;40748;53.168;5.800;2023-01-15T13:14:30;99409.6;;;5.09;100.00
54856;BME280;40748;53.168;5.800;2023-01-15T13:17:01;99396.13;;;4.99;100.00
54856;BME280;40748;53.168;5.800;2023-01-15T13:19:33;99396.01;;;4.91;100.00
54856;BME280;40748;53.168;5.800;2023-01-15T13:22:01;99399.19;;;4.77;100.00
54856;BME280;40748;53.168;5.800;2023-01-15T13:24:35;99399.49;;;4.60;100.00
54856;BME280;40748;53.168;5.800;2023-01-15T13:27:04;99384.77;;;4.69;100.00
54856;BME280;40748;53.168;5.800;2023-01-15T13:29:34;99379.92;;;4.81;100.00
54856;BME280;40748;53.168;5.800;2023-01-15T13:32:01;99387.7;;;4.93;100.00
54856;BME280;40748;53.168;5.800;2023-01-15T13:34:33;99387.84000000001;;;5.00;100.00
54856;BME280;40748;53.168;5.800;2023-01-15T13:37:02;99382.81;;;5.10;100.00
54856;BME280;40748;53.168;5.800;2023-01-15T13:39:35;99397.61;;;5.17;100.00
54856;BME280;40748;53.168;5.800;2023-01-15T13:42:00;99389.39;;;5.23;100.00
54856;BME280;40748;53.168;5.800;2023-01-15T13:44:31;99398.99;;;5.32;100.00
54856;BME280;40748;53.168;5.800;2023-01-15T13:47:01;99409.96;;;5.34;100.00
54856;BME280;40748;53.168;5.800;2023-01-15T13:49:31;99409.96;;;5.39;100.00
54856;BME280;40748;53.168;5.800;2023-01-15T13:52:01;99419.38;;;5.43;100.00
54856;BME280;40748;53.168;5.800;2023-01-15T13:54:31;99422.04000000001;;;5.51;100.00
54856;BME280;40748;53.168;5.800;2023-01-15T13:57:08;99434.91;;;5.64;100.00
54856;BME280;40748;53.168;5.800;2023-01-15T13:59:33;99408.34;;;5.61;100.00
54856;BME280;40748;53.168;5.800;2023-01-15T14:02:00;99411.3;;;5.70;100.00
54856;BME280;40748;53.168;5.800;2023-01-15T14:04:31;99410.11;;;5.71;100.00
54856;BME280;40748;53.168;5.800;2023-01-15T14:07:00;99418.97;;;5.78;100.00
54856;BME280;40748;53.168;5.800;2023-01-15T14:09:30;99417.81;;;5.86;100.00
54856;BME280;40748;53.168;5.800;2023-01-15T14:12:03;99449.95;;;5.85;100.00
54856;BME280;40748;53.168;5.800;2023-01-15T14:17:05;99442.21;;;5.91;100.00
54856;BME280;40748;53.168;5.800;2023-01-15T14:19:35;99440.42;;;5.98;100.00
54856;BME280;40748;53.168;5.800;2023-01-15T14:22:06;99437.2;;;5.96;100.00
54856;BME280;40748;53.168;5.800;2023-01-15T14:24:38;99447.74;;;5.99;100.00
54856;BME280;40748;53.168;5.800;2023-01-15T14:27:02;99453.63;;;5.97;100.00
54856;BME280;40748;53.168;5.800;2023-01-15T14:29:41;99457.79;;;5.98;100.00